createdAt,value
2018-12-08T00:01:13.406Z,90.48
2018-12-08T00:03:39.283Z,89.06
2018-12-08T00:06:05.186Z,89.71
2018-12-08T00:08:31.064Z,90.87
2018-12-08T00:10:57.270Z,91.41
2018-12-08T00:13:23.144Z,91.98
2018-12-08T00:15:49.049Z,92.28
2018-12-08T00:18:14.949Z,94.10
2018-12-08T00:20:40.827Z,95.39
2018-12-08T00:23:06.703Z,96.37
2018-12-08T00:25:32.602Z,97.68
2018-12-08T00:27:58.491Z,98.01
2018-12-08T00:33:26.275Z,100.00
2018-12-08T00:35:52.123Z,100.00
2018-12-08T00:38:17.999Z,98.71
2018-12-08T00:40:43.866Z,98.70
2018-12-08T00:43:09.750Z,99.32
2018-12-08T00:45:35.610Z,100.00
2018-12-08T00:48:01.499Z,100.00
2018-12-08T00:50:27.379Z,100.00
2018-12-08T00:52:54.222Z,100.00
2018-12-08T00:55:20.220Z,100.00
2018-12-08T00:57:46.098Z,99.92
2018-12-08T01:00:12.114Z,100.00
2018-12-08T01:02:38.027Z,98.86
2018-12-08T01:05:04.130Z,98.86
2018-12-08T01:07:30.037Z,97.70
2018-12-08T01:09:56.057Z,97.07
2018-12-08T01:12:22.062Z,96.48
2018-12-08T01:14:47.979Z,95.34
2018-12-08T01:17:13.846Z,95.47
2018-12-08T01:19:39.727Z,94.55
2018-12-08T01:22:05.599Z,95.43
2018-12-08T01:24:31.494Z,94.93
2018-12-08T01:26:57.374Z,96.43
2018-12-08T01:29:23.259Z,95.79
2018-12-08T01:31:49.116Z,95.57
2018-12-08T01:34:15.007Z,96.18
2018-12-08T01:36:40.878Z,96.71
2018-12-08T01:39:06.755Z,95.84
2018-12-08T01:41:32.763Z,96.63
2018-12-08T01:43:58.615Z,95.61
2018-12-08T01:46:24.510Z,96.23
2018-12-08T01:48:50.351Z,95.37
2018-12-08T01:51:16.323Z,93.52
2018-12-08T01:53:42.159Z,94.52
2018-12-08T01:56:08.040Z,94.57
2018-12-08T01:58:33.934Z,95.60
2018-12-08T02:00:59.851Z,95.38
2018-12-08T02:06:20.640Z,95.43
2018-12-08T02:08:46.511Z,94.47
2018-12-08T02:11:12.395Z,93.93
2018-12-08T02:13:38.271Z,95.24
2018-12-08T02:16:04.189Z,95.02
2018-12-08T02:18:30.066Z,93.72
2018-12-08T02:20:55.929Z,93.20
2018-12-08T02:23:21.837Z,93.65
2018-12-08T02:25:47.768Z,93.73
2018-12-08T02:28:13.644Z,92.72
2018-12-08T02:30:39.663Z,93.11
2018-12-08T02:33:05.570Z,94.45
2018-12-08T02:35:31.451Z,94.38
2018-12-08T02:37:57.353Z,93.96
2018-12-08T02:40:23.250Z,91.60
2018-12-08T02:42:49.155Z,92.19
2018-12-08T02:45:15.035Z,92.58
2018-12-08T02:47:40.900Z,93.23
2018-12-08T02:50:07.039Z,93.49
2018-12-08T02:52:33.009Z,92.45
2018-12-08T02:54:58.896Z,92.69
2018-12-08T02:57:24.775Z,92.49
2018-12-08T02:59:50.650Z,92.83
2018-12-08T03:02:16.536Z,91.80
2018-12-08T03:04:42.426Z,90.75
2018-12-08T03:07:08.291Z,90.49
2018-12-08T03:09:34.212Z,89.48
2018-12-08T03:12:00.103Z,90.24
2018-12-08T03:14:25.996Z,90.29
2018-12-08T03:16:52.079Z,90.03
2018-12-08T03:19:17.955Z,90.54
2018-12-08T03:21:43.892Z,90.65
2018-12-08T03:24:09.781Z,91.10
2018-12-08T03:26:35.646Z,90.20
2018-12-08T03:29:01.578Z,90.00
2018-12-08T03:31:27.452Z,89.39
2018-12-08T03:33:53.459Z,88.60
2018-12-08T03:36:19.322Z,88.61
2018-12-08T03:38:45.194Z,88.55
2018-12-08T03:41:11.058Z,88.36
2018-12-08T03:43:36.925Z,88.20
2018-12-08T03:46:02.931Z,88.42
2018-12-08T03:48:28.798Z,88.95
2018-12-08T03:50:54.666Z,88.81
2018-12-08T03:53:20.641Z,89.07
2018-12-08T03:55:46.504Z,89.66
2018-12-08T03:58:12.373Z,90.16
2018-12-08T04:00:38.266Z,90.49
2018-12-08T04:03:04.133Z,91.06
2018-12-08T04:05:29.993Z,91.26
2018-12-08T04:07:55.880Z,92.09
2018-12-08T04:10:21.776Z,91.17
2018-12-08T04:12:47.686Z,91.43
2018-12-08T04:15:13.630Z,92.01
2018-12-08T04:17:39.502Z,92.27
2018-12-08T04:20:05.448Z,92.07
2018-12-08T04:22:31.448Z,92.12
2018-12-08T04:24:57.368Z,92.51
2018-12-08T04:27:23.333Z,92.98
2018-12-08T04:29:49.208Z,92.73
2018-12-08T04:32:15.057Z,92.86
2018-12-08T04:34:40.946Z,92.39
2018-12-08T04:37:06.899Z,92.63
2018-12-08T04:39:32.806Z,92.86
2018-12-08T04:41:58.783Z,93.52
2018-12-08T04:44:24.758Z,92.40
2018-12-08T04:46:50.622Z,92.21
2018-12-08T04:49:16.495Z,92.41
2018-12-08T04:51:42.341Z,92.71
2018-12-08T04:54:08.207Z,92.93
2018-12-08T04:56:34.077Z,92.88
2018-12-08T04:58:59.923Z,92.36
2018-12-08T05:01:25.820Z,92.08
2018-12-08T05:03:51.700Z,92.10
2018-12-08T05:06:17.678Z,91.80
2018-12-08T05:08:43.537Z,92.03
2018-12-08T05:11:09.461Z,92.51
2018-12-08T05:13:35.326Z,92.07
2018-12-08T05:16:01.184Z,92.30
2018-12-08T05:18:27.043Z,93.12
2018-12-08T05:20:52.934Z,93.64
2018-12-08T05:23:18.806Z,93.68
2018-12-08T05:25:44.699Z,94.41
2018-12-08T05:28:10.596Z,93.33
2018-12-08T05:30:36.497Z,94.52
2018-12-08T05:33:02.356Z,93.46
2018-12-08T05:35:28.251Z,94.56
2018-12-08T05:37:54.158Z,93.77
2018-12-08T05:40:20.037Z,94.12
2018-12-08T05:42:45.943Z,94.66
2018-12-08T05:45:11.935Z,93.39
2018-12-08T05:47:37.867Z,93.22
2018-12-08T05:50:05.391Z,93.23
2018-12-08T05:52:31.310Z,94.14
2018-12-08T05:54:57.166Z,93.23
2018-12-08T05:57:23.063Z,92.77
2018-12-08T05:59:48.917Z,93.08
2018-12-08T06:02:14.935Z,92.80
2018-12-08T06:04:40.814Z,93.09
2018-12-08T06:07:06.723Z,91.96
2018-12-08T06:09:32.572Z,92.08
2018-12-08T06:11:58.481Z,91.76
2018-12-08T06:14:24.355Z,92.27
2018-12-08T06:16:50.217Z,92.25
2018-12-08T06:19:16.126Z,92.33
2018-12-08T06:21:42.058Z,92.10
2018-12-08T06:24:08.067Z,92.66
2018-12-08T06:26:36.884Z,93.37
2018-12-08T06:29:02.794Z,93.22
2018-12-08T06:31:28.675Z,94.20
2018-12-08T06:33:54.558Z,95.07
2018-12-08T06:36:20.423Z,95.40
2018-12-08T06:38:46.443Z,95.29
2018-12-08T06:41:12.303Z,95.32
2018-12-08T06:43:38.195Z,94.95
2018-12-08T06:46:04.098Z,94.57
2018-12-08T06:48:29.962Z,93.52
2018-12-08T06:50:55.871Z,94.36
2018-12-08T06:53:21.800Z,95.79
2018-12-08T06:55:47.714Z,98.72
2018-12-08T06:58:13.615Z,100.00
2018-12-08T07:00:39.524Z,100.00
2018-12-08T07:03:05.432Z,100.00
2018-12-08T07:05:31.294Z,100.00
2018-12-08T07:07:57.160Z,100.00
2018-12-08T07:10:23.062Z,100.00
2018-12-08T07:12:48.992Z,100.00
2018-12-08T07:15:14.902Z,100.00
2018-12-08T07:17:40.787Z,100.00
2018-12-08T07:20:06.725Z,100.00
2018-12-08T07:22:32.623Z,100.00
2018-12-08T07:24:58.494Z,100.00
2018-12-08T07:27:24.425Z,100.00
2018-12-08T07:29:50.305Z,99.29
2018-12-08T07:32:16.194Z,99.69
2018-12-08T07:34:42.058Z,99.83
2018-12-08T07:37:07.895Z,100.00
2018-12-08T07:39:33.782Z,100.00
2018-12-08T07:41:59.682Z,99.23
2018-12-08T07:44:25.582Z,98.84
2018-12-08T07:46:51.439Z,98.58
2018-12-08T07:49:17.276Z,99.05
2018-12-08T07:51:43.183Z,98.15
2018-12-08T07:54:09.062Z,97.32
2018-12-08T07:56:34.933Z,97.53
2018-12-08T07:59:00.812Z,97.36
2018-12-08T08:01:26.710Z,97.19
2018-12-08T08:03:52.602Z,97.44
2018-12-08T08:06:18.487Z,97.02
2018-12-08T08:08:44.336Z,97.39
2018-12-08T08:11:10.219Z,97.94
2018-12-08T08:13:36.090Z,96.95
2018-12-08T08:16:01.979Z,96.83
2018-12-08T08:18:27.961Z,97.88
2018-12-08T08:20:53.831Z,98.50
2018-12-08T08:23:19.711Z,98.72
2018-12-08T08:25:45.578Z,98.47
2018-12-08T08:28:11.454Z,99.32
2018-12-08T08:30:37.390Z,99.47
2018-12-08T08:35:43.724Z,100.00
2018-12-08T08:38:09.604Z,100.00
2018-12-08T08:40:35.448Z,100.00
2018-12-08T08:43:01.366Z,100.00
2018-12-08T08:45:27.420Z,100.00
2018-12-08T08:47:53.281Z,100.00
2018-12-08T08:50:19.161Z,99.99
2018-12-08T08:52:45.011Z,100.00
2018-12-08T08:55:10.900Z,99.07
2018-12-08T08:57:36.777Z,97.86
2018-12-08T09:00:05.175Z,96.57
2018-12-08T09:02:31.089Z,94.70
2018-12-08T09:04:57.165Z,95.08
2018-12-08T09:07:23.049Z,94.03
2018-12-08T09:09:48.912Z,94.87
2018-12-08T09:12:14.801Z,94.67
2018-12-08T09:14:40.630Z,93.80
2018-12-08T09:17:07.180Z,95.17
2018-12-08T09:19:33.015Z,94.42
2018-12-08T09:21:58.905Z,94.14
2018-12-08T09:24:24.766Z,94.23
2018-12-08T09:26:50.647Z,94.21
2018-12-08T09:29:16.487Z,93.88
2018-12-08T09:31:42.428Z,94.30
2018-12-08T09:34:08.302Z,94.92
2018-12-08T09:36:34.362Z,94.41
2018-12-08T09:39:00.273Z,93.79
2018-12-08T09:41:26.153Z,94.48
2018-12-08T09:43:52.018Z,92.79
2018-12-08T09:46:17.927Z,93.05
2018-12-08T09:48:43.818Z,93.13
2018-12-08T09:51:09.698Z,92.40
2018-12-08T09:53:35.556Z,93.09
2018-12-08T09:56:01.491Z,91.86
2018-12-08T09:58:27.367Z,91.36
2018-12-08T10:00:53.226Z,90.49
2018-12-08T10:03:19.115Z,90.48
2018-12-08T10:05:45.009Z,91.20
2018-12-08T10:08:10.890Z,89.51
2018-12-08T10:10:36.846Z,89.14
2018-12-08T10:15:55.439Z,88.21
2018-12-08T10:18:21.434Z,87.36
2018-12-08T10:20:47.331Z,87.48
2018-12-08T10:23:13.261Z,87.43
2018-12-08T10:25:39.186Z,86.91
2018-12-08T10:28:05.125Z,87.80
2018-12-08T10:30:31.006Z,87.96
2018-12-08T10:32:56.875Z,88.17
2018-12-08T10:35:22.734Z,88.99
2018-12-08T10:37:48.619Z,90.03
2018-12-08T10:40:14.464Z,90.78
2018-12-08T10:42:40.443Z,92.30
2018-12-08T10:45:06.462Z,92.94
2018-12-08T10:47:32.385Z,94.21
2018-12-08T10:49:58.262Z,96.18
2018-12-08T10:52:24.099Z,98.06
2018-12-08T10:54:50.025Z,100.00
2018-12-08T10:57:15.945Z,99.65
2018-12-08T10:59:41.805Z,100.00
2018-12-08T11:02:09.695Z,100.00
2018-12-08T11:04:35.594Z,100.00
2018-12-08T11:07:01.482Z,100.00
2018-12-08T11:09:27.344Z,100.00
2018-12-08T11:11:53.262Z,100.00
2018-12-08T11:14:19.141Z,100.00
2018-12-08T11:16:45.072Z,100.00
2018-12-08T11:19:10.938Z,100.00
2018-12-08T11:21:37.238Z,100.00
2018-12-08T11:24:03.135Z,100.00
2018-12-08T11:26:29.011Z,100.00
2018-12-08T11:28:54.908Z,100.00
2018-12-08T11:31:21.814Z,100.00
2018-12-08T11:33:48.934Z,100.00
2018-12-08T11:36:14.950Z,100.00
2018-12-08T11:38:40.810Z,100.00
2018-12-08T11:41:06.683Z,100.00
2018-12-08T11:43:32.549Z,100.00
2018-12-08T11:45:58.440Z,100.00
2018-12-08T11:48:24.311Z,100.00
2018-12-08T11:50:50.202Z,100.00
2018-12-08T11:53:16.150Z,100.00
2018-12-08T11:55:42.054Z,100.00
2018-12-08T11:58:07.935Z,100.00
2018-12-08T12:00:33.948Z,100.00
2018-12-08T12:02:59.851Z,100.00
2018-12-08T12:05:25.774Z,100.00
2018-12-08T12:07:51.631Z,100.00
2018-12-08T12:10:17.692Z,100.00
2018-12-08T12:12:43.601Z,100.00
2018-12-08T12:15:09.498Z,100.00
2018-12-08T12:17:35.424Z,100.00
2018-12-08T12:20:01.531Z,100.00
2018-12-08T12:22:27.407Z,100.00
2018-12-08T12:24:53.423Z,100.00
2018-12-08T12:27:19.395Z,100.00
2018-12-08T12:29:45.344Z,100.00
2018-12-08T12:32:11.235Z,100.00
2018-12-08T12:34:37.085Z,100.00
2018-12-08T12:37:03.271Z,100.00
2018-12-08T12:39:29.132Z,100.00
2018-12-08T12:41:55.109Z,100.00
2018-12-08T12:44:20.978Z,100.00
2018-12-08T12:46:46.923Z,100.00
2018-12-08T12:49:12.819Z,100.00
2018-12-08T12:51:38.675Z,100.00
2018-12-08T12:54:04.673Z,100.00
2018-12-08T12:56:30.539Z,100.00
2018-12-08T12:58:56.490Z,100.00
2018-12-08T13:01:22.410Z,100.00
2018-12-08T13:03:48.451Z,100.00
2018-12-08T13:06:14.317Z,100.00
2018-12-08T13:08:40.234Z,100.00
2018-12-08T13:11:06.153Z,100.00
2018-12-08T13:13:32.042Z,100.00
2018-12-08T13:15:57.933Z,100.00
2018-12-08T13:18:23.925Z,100.00
2018-12-08T13:20:49.811Z,100.00
2018-12-08T13:23:15.726Z,100.00
2018-12-08T13:25:41.882Z,100.00
2018-12-08T13:28:07.778Z,100.00
2018-12-08T13:30:33.678Z,100.00
2018-12-08T13:32:59.841Z,100.00
2018-12-08T13:35:37.866Z,100.00
2018-12-08T13:38:03.729Z,100.00
2018-12-08T13:40:29.604Z,100.00
2018-12-08T13:42:55.470Z,100.00
2018-12-08T13:45:21.382Z,100.00
2018-12-08T13:47:47.216Z,100.00
2018-12-08T13:50:13.130Z,100.00
2018-12-08T13:52:39.195Z,100.00
2018-12-08T13:55:05.111Z,100.00
2018-12-08T13:57:30.989Z,100.00
2018-12-08T13:59:56.882Z,100.00
2018-12-08T14:02:22.728Z,100.00
2018-12-08T14:04:48.583Z,100.00
2018-12-08T14:07:14.525Z,100.00
2018-12-08T14:09:40.387Z,100.00
2018-12-08T14:12:06.295Z,100.00
2018-12-08T14:14:32.163Z,100.00
2018-12-08T14:16:58.131Z,100.00
2018-12-08T14:19:26.143Z,100.00
2018-12-08T14:21:52.046Z,100.00
2018-12-08T14:24:17.969Z,100.00
2018-12-08T14:26:43.858Z,100.00
2018-12-08T14:29:11.238Z,100.00
2018-12-08T14:31:37.523Z,100.00
2018-12-08T14:34:03.543Z,100.00
2018-12-08T14:36:29.508Z,100.00
2018-12-08T14:38:57.709Z,100.00
2018-12-08T14:41:23.328Z,100.00
2018-12-08T14:43:49.246Z,100.00
2018-12-08T14:46:15.868Z,100.00
2018-12-08T14:48:41.846Z,100.00
2018-12-08T14:51:07.708Z,100.00
2018-12-08T14:53:33.602Z,100.00
2018-12-08T14:55:59.475Z,100.00
2018-12-08T14:58:25.394Z,100.00
2018-12-08T15:00:51.262Z,100.00
2018-12-08T15:03:17.169Z,100.00
2018-12-08T15:05:43.051Z,100.00
2018-12-08T15:08:08.919Z,100.00
2018-12-08T15:10:34.785Z,100.00
2018-12-08T15:13:00.650Z,100.00
2018-12-08T15:15:26.523Z,100.00
2018-12-08T15:17:52.451Z,100.00
2018-12-08T15:20:18.316Z,100.00
2018-12-08T15:22:44.183Z,100.00
2018-12-08T15:25:10.086Z,100.00
2018-12-08T15:27:35.962Z,100.00
2018-12-08T15:30:02.116Z,100.00
2018-12-08T15:32:27.976Z,100.00
2018-12-08T15:34:53.915Z,100.00
2018-12-08T15:37:19.798Z,100.00
2018-12-08T15:39:45.655Z,100.00
2018-12-08T15:42:11.573Z,100.00
2018-12-08T15:44:37.457Z,100.00
2018-12-08T15:47:03.326Z,100.00
2018-12-08T15:49:29.207Z,100.00
2018-12-08T15:51:55.162Z,100.00
2018-12-08T15:54:21.098Z,100.00
2018-12-08T15:56:46.969Z,100.00
2018-12-08T15:59:12.831Z,100.00
2018-12-08T16:01:38.698Z,100.00
2018-12-08T16:04:04.565Z,100.00
2018-12-08T16:06:30.458Z,100.00
2018-12-08T16:08:56.481Z,100.00
2018-12-08T16:11:22.402Z,100.00
2018-12-08T16:13:48.259Z,100.00
2018-12-08T16:16:14.116Z,100.00
2018-12-08T16:18:40.090Z,100.00
2018-12-08T16:21:06.104Z,100.00
2018-12-08T16:23:32.012Z,100.00
2018-12-08T16:25:58.024Z,100.00
2018-12-08T16:28:23.922Z,100.00
2018-12-08T16:30:49.818Z,100.00
2018-12-08T16:33:15.682Z,100.00
2018-12-08T16:35:41.644Z,100.00
2018-12-08T16:38:07.535Z,100.00
2018-12-08T16:40:33.420Z,100.00
2018-12-08T16:42:59.310Z,100.00
2018-12-08T16:45:25.292Z,100.00
2018-12-08T16:47:51.154Z,100.00
2018-12-08T16:50:17.057Z,100.00
2018-12-08T16:52:43.202Z,100.00
2018-12-08T16:55:09.077Z,100.00
2018-12-08T16:57:34.967Z,100.00
2018-12-08T17:00:00.858Z,100.00
2018-12-08T17:02:26.844Z,100.00
2018-12-08T17:04:52.762Z,100.00
2018-12-08T17:07:18.624Z,100.00
2018-12-08T17:09:44.534Z,100.00
2018-12-08T17:12:10.623Z,100.00
2018-12-08T17:14:36.649Z,100.00
2018-12-08T17:17:02.602Z,100.00
2018-12-08T17:19:28.527Z,100.00
2018-12-08T17:21:54.454Z,100.00
2018-12-08T17:24:20.283Z,100.00
2018-12-08T17:26:46.273Z,100.00
2018-12-08T17:29:12.186Z,100.00
2018-12-08T17:34:33.010Z,100.00
2018-12-08T17:39:31.554Z,100.00
2018-12-08T17:41:57.458Z,100.00
2018-12-08T17:44:23.327Z,100.00
2018-12-08T17:46:49.266Z,100.00
2018-12-08T17:49:16.511Z,100.00
2018-12-08T17:51:42.463Z,100.00
2018-12-08T17:54:08.471Z,100.00
2018-12-08T17:56:34.337Z,100.00
2018-12-08T17:59:00.253Z,100.00
2018-12-08T18:01:26.266Z,100.00
2018-12-08T18:03:52.266Z,100.00
2018-12-08T18:06:18.128Z,100.00
2018-12-08T18:08:44.063Z,100.00
2018-12-08T18:11:09.933Z,100.00
2018-12-08T18:13:35.810Z,100.00
2018-12-08T18:16:01.805Z,100.00
2018-12-08T18:18:27.705Z,100.00
2018-12-08T18:20:53.663Z,100.00
2018-12-08T18:23:19.881Z,100.00
2018-12-08T18:25:45.725Z,100.00
2018-12-08T18:28:11.623Z,100.00
2018-12-08T18:30:37.484Z,100.00
2018-12-08T18:33:03.371Z,100.00
2018-12-08T18:35:29.260Z,100.00
2018-12-08T18:37:55.130Z,100.00
2018-12-08T18:40:21.054Z,100.00
2018-12-08T18:42:46.970Z,100.00
2018-12-08T18:45:12.955Z,100.00
2018-12-08T18:47:38.927Z,100.00
2018-12-08T18:50:07.045Z,100.00
2018-12-08T18:52:32.955Z,100.00
2018-12-08T18:54:58.862Z,100.00
2018-12-08T18:57:24.739Z,100.00
2018-12-08T18:59:50.622Z,100.00
2018-12-08T19:02:16.596Z,100.00
2018-12-08T19:04:42.478Z,100.00
2018-12-08T19:07:08.362Z,100.00
2018-12-08T19:09:34.222Z,100.00
2018-12-08T19:12:00.126Z,100.00
2018-12-08T19:14:25.994Z,100.00
2018-12-08T19:19:44.713Z,100.00
2018-12-08T19:22:10.594Z,100.00
2018-12-08T19:24:36.487Z,100.00
2018-12-08T19:27:02.395Z,100.00
2018-12-08T19:29:28.303Z,100.00
2018-12-08T19:31:54.238Z,100.00
2018-12-08T19:34:20.087Z,100.00
2018-12-08T19:36:46.004Z,100.00
2018-12-08T19:39:11.867Z,100.00
2018-12-08T19:41:37.721Z,100.00
2018-12-08T19:44:03.599Z,100.00
2018-12-08T19:46:29.498Z,100.00
2018-12-08T19:48:55.352Z,100.00
2018-12-08T19:51:21.281Z,100.00
2018-12-08T19:53:47.174Z,100.00
2018-12-08T19:56:13.083Z,100.00
2018-12-08T19:58:38.999Z,100.00
2018-12-08T20:01:04.887Z,100.00
2018-12-08T20:03:31.682Z,100.00
2018-12-08T20:05:57.660Z,100.00
2018-12-08T20:08:23.553Z,100.00
2018-12-08T20:10:49.407Z,100.00
2018-12-08T20:13:15.258Z,100.00
2018-12-08T20:15:41.115Z,100.00
2018-12-08T20:18:07.000Z,100.00
2018-12-08T20:20:32.860Z,100.00
2018-12-08T20:22:58.731Z,100.00
2018-12-08T20:25:24.579Z,100.00
2018-12-08T20:27:50.433Z,100.00
2018-12-08T20:30:16.339Z,100.00
2018-12-08T20:32:42.203Z,100.00
2018-12-08T20:35:08.176Z,100.00
2018-12-08T20:37:34.028Z,100.00
2018-12-08T20:39:59.944Z,100.00
2018-12-08T20:42:25.944Z,100.00
2018-12-08T20:44:51.907Z,100.00
2018-12-08T20:47:17.777Z,100.00
2018-12-08T20:49:43.636Z,100.00
2018-12-08T20:52:09.687Z,100.00
2018-12-08T20:54:35.574Z,100.00
2018-12-08T20:57:01.443Z,100.00
2018-12-08T20:59:27.312Z,100.00
2018-12-08T21:01:53.219Z,100.00
2018-12-08T21:04:19.140Z,100.00
2018-12-08T21:06:45.013Z,100.00
2018-12-08T21:09:10.893Z,100.00
2018-12-08T21:11:36.795Z,100.00
2018-12-08T21:14:02.877Z,100.00
2018-12-08T21:16:28.826Z,100.00
2018-12-08T21:18:54.792Z,100.00
2018-12-08T21:21:20.877Z,100.00
2018-12-08T21:23:46.810Z,100.00
2018-12-08T21:26:12.764Z,100.00
2018-12-08T21:28:38.661Z,100.00
2018-12-08T21:31:04.560Z,100.00
2018-12-08T21:33:30.524Z,100.00
2018-12-08T21:35:56.429Z,100.00
2018-12-08T21:38:22.378Z,100.00
2018-12-08T21:40:48.326Z,100.00
2018-12-08T21:43:14.371Z,100.00
2018-12-08T21:45:40.299Z,100.00
2018-12-08T21:48:06.253Z,100.00
2018-12-08T21:50:32.846Z,100.00
2018-12-08T21:52:58.787Z,100.00
2018-12-08T21:55:24.740Z,100.00
2018-12-08T21:57:51.048Z,100.00
2018-12-08T22:00:16.972Z,100.00
2018-12-08T22:02:42.887Z,100.00
2018-12-08T22:05:08.823Z,100.00
2018-12-08T22:07:34.798Z,100.00
2018-12-08T22:10:00.694Z,100.00
2018-12-08T22:12:26.613Z,100.00
2018-12-08T22:14:57.390Z,100.00
2018-12-08T22:17:23.307Z,100.00
2018-12-08T22:19:49.216Z,100.00
2018-12-08T22:22:15.135Z,100.00
2018-12-08T22:24:41.050Z,100.00
2018-12-08T22:27:07.167Z,100.00
2018-12-08T22:29:33.071Z,100.00
2018-12-08T22:31:58.952Z,100.00
2018-12-08T22:34:24.822Z,100.00
2018-12-08T22:36:50.705Z,100.00
2018-12-08T22:39:16.554Z,100.00
2018-12-08T22:41:42.456Z,100.00
2018-12-08T22:44:08.385Z,100.00
2018-12-08T22:46:34.363Z,100.00
2018-12-08T22:49:00.247Z,100.00
2018-12-08T22:51:26.134Z,100.00
2018-12-08T22:53:52.034Z,100.00
2018-12-08T22:56:17.891Z,100.00
2018-12-08T22:58:43.761Z,100.00
2018-12-08T23:01:09.759Z,100.00
2018-12-08T23:03:35.651Z,100.00
2018-12-08T23:06:01.536Z,100.00
2018-12-08T23:08:27.420Z,100.00
2018-12-08T23:10:53.313Z,100.00
2018-12-08T23:13:19.216Z,100.00
2018-12-08T23:15:45.076Z,100.00
2018-12-08T23:18:10.953Z,100.00
2018-12-08T23:20:36.821Z,100.00
2018-12-08T23:23:02.729Z,100.00
2018-12-08T23:25:28.701Z,100.00
2018-12-08T23:27:54.615Z,100.00
2018-12-08T23:30:20.588Z,100.00
2018-12-08T23:32:46.575Z,100.00
2018-12-08T23:35:12.454Z,100.00
2018-12-08T23:37:38.428Z,100.00
2018-12-08T23:40:04.799Z,100.00
2018-12-08T23:42:30.694Z,100.00
2018-12-08T23:44:56.554Z,100.00
2018-12-08T23:47:22.428Z,100.00
2018-12-08T23:49:48.405Z,100.00
2018-12-08T23:52:14.264Z,100.00
2018-12-08T23:54:40.131Z,100.00
2018-12-08T23:57:06.051Z,100.00
2018-12-08T23:59:32.181Z,100.00
